createdAt,value
2023-03-26T00:03:05.444Z,2.00
2023-03-26T00:08:08.802Z,0.90
2023-03-26T00:13:11.361Z,1.48
2023-03-26T00:18:13.075Z,1.00
2023-03-26T00:23:14.857Z,1.75
2023-03-26T00:28:21.393Z,1.15
2023-03-26T00:33:23.420Z,1.00
2023-03-26T00:38:27.187Z,1.15
2023-03-26T00:43:32.849Z,1.90
2023-03-26T00:48:44.357Z,2.00
2023-03-26T00:53:48.756Z,0.73
2023-03-26T00:58:50.683Z,0.90
2023-03-26T01:04:08.333Z,1.70
2023-03-26T01:09:35.980Z,2.67
2023-03-26T01:14:38.680Z,2.35
2023-03-26T01:19:59.035Z,1.23
2023-03-26T01:25:00.718Z,2.15
2023-03-26T01:30:28.717Z,0.95
2023-03-26T01:35:38.975Z,0.77
2023-03-26T01:40:49.500Z,1.85
2023-03-26T01:45:52.532Z,1.17
2023-03-26T01:50:56.303Z,1.92
2023-03-26T01:56:16.667Z,3.38
2023-03-26T02:01:33.153Z,1.48
2023-03-26T02:07:05.730Z,0.93
2023-03-26T02:12:09.623Z,1.10
2023-03-26T02:17:12.102Z,1.75
2023-03-26T02:22:16.390Z,3.97
2023-03-26T02:27:18.558Z,2.80
2023-03-26T02:32:20.253Z,2.33
2023-03-26T02:37:21.957Z,3.08
2023-03-26T02:42:23.629Z,3.22
2023-03-26T02:47:25.603Z,2.42
2023-03-26T02:52:29.616Z,3.05
2023-03-26T02:57:31.389Z,1.92
2023-03-26T03:02:33.374Z,2.38
2023-03-26T03:07:37.991Z,1.25
2023-03-26T03:12:42.971Z,1.52
2023-03-26T03:17:44.664Z,3.58
2023-03-26T03:22:46.600Z,4.75
2023-03-26T03:27:48.480Z,3.28
2023-03-26T03:32:50.302Z,5.32
2023-03-26T03:37:52.095Z,1.80
2023-03-26T03:42:53.798Z,2.72
2023-03-26T03:47:55.851Z,1.92
2023-03-26T03:52:59.346Z,1.63
2023-03-26T03:58:01.102Z,2.60
2023-03-26T04:03:06.333Z,3.53
2023-03-26T04:08:08.232Z,4.15
2023-03-26T04:13:12.094Z,3.03
2023-03-26T04:18:14.346Z,4.93
2023-03-26T04:23:18.272Z,3.20
2023-03-26T04:28:32.244Z,4.57
2023-03-26T04:33:35.479Z,3.45
2023-03-26T04:38:43.058Z,1.40
2023-03-26T04:43:50.365Z,2.58
2023-03-26T04:48:53.532Z,1.20
2023-03-26T04:54:00.493Z,3.40
2023-03-26T04:59:02.878Z,1.15
2023-03-26T05:04:04.759Z,1.40
2023-03-26T05:09:06.838Z,1.92
2023-03-26T05:14:09.068Z,2.67
2023-03-26T05:19:10.864Z,0.80
2023-03-26T05:24:12.550Z,2.60
2023-03-26T05:29:17.113Z,1.10
2023-03-26T05:34:20.554Z,3.85
2023-03-26T05:39:26.169Z,1.33
2023-03-26T05:44:28.090Z,1.83
2023-03-26T05:49:29.865Z,1.55
2023-03-26T05:54:31.551Z,2.58
2023-03-26T05:59:33.304Z,1.80
2023-03-26T06:04:35.345Z,2.60
2023-03-26T06:09:38.700Z,1.95
2023-03-26T06:14:42.765Z,2.38
2023-03-26T06:19:44.547Z,2.78
2023-03-26T06:24:46.302Z,2.67
2023-03-26T06:29:48.201Z,1.38
2023-03-26T06:34:50.215Z,1.48
2023-03-26T06:39:51.975Z,2.38
2023-03-26T06:44:53.872Z,1.65
2023-03-26T06:49:55.605Z,2.45
2023-03-26T06:54:57.417Z,2.60
2023-03-26T06:59:59.116Z,2.38
2023-03-26T07:05:00.928Z,2.67
2023-03-26T07:10:02.812Z,4.00
2023-03-26T07:15:05.499Z,1.73
2023-03-26T07:20:09.094Z,2.10
2023-03-26T07:25:14.899Z,2.75
2023-03-26T07:30:19.723Z,2.05
2023-03-26T07:35:41.627Z,2.55
2023-03-26T07:40:49.086Z,3.65
2023-03-26T07:45:51.398Z,4.32
2023-03-26T07:50:54.896Z,3.88
2023-03-26T07:56:05.942Z,3.50
2023-03-26T08:01:45.513Z,3.08
2023-03-26T08:06:59.501Z,4.72
2023-03-26T08:12:36.361Z,6.15
2023-03-26T08:17:42.697Z,4.93
2023-03-26T08:22:50.796Z,4.35
2023-03-26T08:28:04.194Z,6.40
2023-03-26T08:33:12.665Z,5.90
2023-03-26T08:38:17.096Z,4.97
2023-03-26T08:43:33.598Z,5.35
2023-03-26T08:49:06.286Z,7.30
2023-03-26T08:54:41.314Z,8.57
2023-03-26T09:00:20.451Z,6.45
2023-03-26T09:06:03.252Z,11.02
2023-03-26T09:11:11.001Z,8.95
2023-03-26T09:16:24.501Z,7.90
2023-03-26T09:21:54.587Z,10.70
2023-03-26T09:27:22.102Z,6.90
2023-03-26T09:32:32.814Z,7.43
2023-03-26T09:37:58.925Z,7.78
2023-03-26T09:43:25.131Z,7.40
2023-03-26T09:48:26.904Z,10.40
2023-03-26T09:53:57.901Z,7.32
2023-03-26T09:59:21.142Z,9.00
2023-03-26T10:04:29.002Z,6.50
2023-03-26T10:09:55.512Z,10.25
2023-03-26T10:15:09.208Z,7.63
2023-03-26T10:20:44.151Z,5.88
2023-03-26T10:26:09.901Z,9.45
2023-03-26T10:31:23.727Z,9.27
2023-03-26T10:36:31.248Z,7.15
2023-03-26T10:41:51.620Z,7.13
2023-03-26T10:47:14.476Z,8.73
2023-03-26T10:52:21.853Z,7.43
2023-03-26T10:57:43.923Z,6.72
2023-03-26T11:03:20.641Z,7.63
2023-03-26T11:08:31.706Z,6.50
2023-03-26T11:13:49.857Z,8.93
2023-03-26T11:19:11.626Z,3.13
2023-03-26T11:24:23.005Z,5.03
2023-03-26T11:29:33.756Z,8.00
2023-03-26T11:34:40.341Z,8.70
2023-03-26T11:39:50.928Z,5.68
2023-03-26T11:45:00.682Z,4.95
2023-03-26T11:50:03.987Z,7.22
2023-03-26T11:55:06.644Z,4.47
2023-03-26T12:00:21.203Z,6.18
2023-03-26T12:05:26.449Z,4.90
2023-03-26T12:10:38.798Z,7.25
2023-03-26T12:15:43.746Z,6.43
2023-03-26T12:20:45.750Z,4.68
2023-03-26T12:26:11.301Z,5.32
2023-03-26T12:31:18.128Z,11.30
2023-03-26T12:36:31.168Z,8.27
2023-03-26T12:42:36.680Z,5.00
2023-03-26T12:47:58.862Z,4.57
2023-03-26T12:52:41.788Z,3.97
2023-03-26T12:58:26.435Z,3.17
2023-03-26T13:03:38.520Z,1.27
2023-03-26T13:08:52.295Z,3.90
2023-03-26T13:14:11.915Z,4.82
2023-03-26T13:19:45.105Z,3.22
2023-03-26T13:24:57.575Z,5.80
2023-03-26T13:30:22.404Z,3.72
2023-03-26T13:35:54.705Z,4.78
2023-03-26T13:41:09.218Z,5.72
2023-03-26T13:46:38.641Z,2.70
2023-03-26T13:52:00.546Z,2.75
2023-03-26T13:57:31.925Z,3.25
2023-03-26T14:02:44.103Z,3.20
2023-03-26T14:08:04.246Z,2.20
2023-03-26T14:13:31.108Z,4.40
2023-03-26T14:18:51.971Z,5.22
2023-03-26T14:24:08.640Z,8.32
2023-03-26T14:29:30.684Z,3.53
2023-03-26T14:35:00.935Z,3.75
2023-03-26T14:40:40.674Z,2.58
2023-03-26T14:45:48.682Z,3.15
2023-03-26T14:51:12.182Z,2.15
2023-03-26T14:56:35.729Z,2.00
2023-03-26T15:02:15.590Z,3.72
2023-03-26T15:07:48.198Z,5.38
2023-03-26T15:13:31.421Z,3.45
2023-03-26T15:18:51.764Z,18.23
2023-03-26T15:24:40.555Z,3.80
2023-03-26T15:30:01.687Z,2.33
2023-03-26T15:35:45.304Z,2.17
2023-03-26T15:41:27.105Z,3.25
2023-03-26T15:47:10.918Z,3.05
2023-03-26T15:52:34.163Z,4.20
2023-03-26T15:58:13.696Z,4.30
2023-03-26T16:04:14.781Z,7.35
2023-03-26T16:09:43.275Z,3.65
2023-03-26T16:15:05.242Z,4.80
2023-03-26T16:20:32.636Z,2.75
2023-03-26T16:25:57.802Z,2.92
2023-03-26T16:31:23.495Z,3.28
2023-03-26T16:36:35.959Z,4.60
2023-03-26T16:41:49.927Z,2.83
2023-03-26T16:47:10.041Z,4.22
2023-03-26T16:52:20.626Z,5.70
2023-03-26T16:57:45.512Z,5.70
2023-03-26T17:03:25.595Z,3.38
2023-03-26T17:08:53.439Z,4.03
2023-03-26T17:14:12.205Z,6.53
2023-03-26T17:19:29.738Z,2.95
2023-03-26T17:24:53.160Z,4.68
2023-03-26T17:30:24.819Z,6.10
2023-03-26T17:35:47.672Z,2.40
2023-03-26T17:40:54.816Z,3.92
2023-03-26T17:46:03.028Z,3.05
2023-03-26T17:51:50.443Z,2.38
2023-03-26T17:56:55.348Z,4.65
2023-03-26T18:02:03.855Z,3.00
2023-03-26T18:07:27.723Z,2.22
2023-03-26T18:13:02.317Z,4.72
2023-03-26T18:18:22.553Z,3.35
2023-03-26T18:23:51.110Z,3.08
2023-03-26T18:29:08.254Z,2.53
2023-03-26T18:34:18.921Z,4.03
2023-03-26T18:39:20.669Z,3.50
2023-03-26T18:44:22.497Z,2.15
2023-03-26T18:49:28.464Z,4.00
2023-03-26T18:54:35.385Z,4.32
2023-03-26T18:59:40.889Z,4.45
2023-03-26T19:04:46.668Z,3.75
2023-03-26T19:09:50.535Z,4.38
2023-03-26T19:15:14.529Z,3.78
2023-03-26T19:20:27.150Z,5.80
2023-03-26T19:25:43.212Z,6.00
2023-03-26T19:30:45.498Z,3.47
2023-03-26T19:36:01.989Z,3.45
2023-03-26T19:41:04.281Z,4.80
2023-03-26T19:46:06.376Z,3.92
2023-03-26T19:51:23.089Z,5.93
2023-03-26T19:56:25.477Z,4.90
2023-03-26T20:01:29.690Z,4.80
2023-03-26T20:06:42.254Z,6.28
2023-03-26T20:11:46.998Z,6.13
2023-03-26T20:16:49.408Z,5.35
2023-03-26T20:21:57.657Z,7.35
2023-03-26T20:26:59.466Z,8.57
2023-03-26T20:32:01.528Z,7.20
2023-03-26T20:37:29.347Z,7.68
2023-03-26T20:42:31.124Z,7.18
2023-03-26T20:47:35.283Z,5.25
2023-03-26T20:52:37.278Z,5.45
2023-03-26T20:57:42.328Z,2.50
2023-03-26T21:02:44.348Z,2.22
2023-03-26T21:07:46.503Z,4.13
2023-03-26T21:13:27.269Z,5.28
2023-03-26T21:18:29.366Z,3.17
2023-03-26T21:23:46.407Z,4.05
2023-03-26T21:28:49.473Z,2.95
2023-03-26T21:33:52.197Z,4.30
2023-03-26T21:38:54.666Z,4.65
2023-03-26T21:43:56.469Z,6.53
2023-03-26T21:48:59.784Z,4.13
2023-03-26T21:54:02.045Z,5.18
2023-03-26T21:59:06.932Z,5.38
2023-03-26T22:04:42.026Z,5.72
2023-03-26T22:09:44.924Z,7.18
2023-03-26T22:14:46.808Z,4.15
2023-03-26T22:19:48.625Z,7.05
2023-03-26T22:24:50.365Z,7.45
2023-03-26T22:29:52.930Z,7.47
2023-03-26T22:34:54.688Z,7.15
2023-03-26T22:39:56.981Z,8.88
2023-03-26T22:44:58.664Z,8.20
2023-03-26T22:50:00.814Z,7.78
2023-03-26T22:55:03.319Z,8.18
2023-03-26T23:00:16.279Z,8.10
2023-03-26T23:05:18.574Z,4.70
2023-03-26T23:10:21.639Z,9.60
2023-03-26T23:15:25.883Z,7.18
2023-03-26T23:20:27.597Z,8.38
2023-03-26T23:25:30.719Z,11.77
2023-03-26T23:30:32.433Z,13.10
2023-03-26T23:35:36.053Z,8.63
2023-03-26T23:40:40.000Z,10.18
2023-03-26T23:45:47.848Z,13.50
2023-03-26T23:50:50.792Z,7.88
2023-03-26T23:55:54.167Z,10.10
